Time;durP1;ratioP1;P1;durP2;ratioP2;P2;SDS_P1;SDS_P2;PMS_P1;PMS_P2;Temp;Humidity;BMP_temperature;BMP_pressure;BME280_temperature;BME280_humidity;BME280_pressure;Samples;Min_cycle;Max_cycle;Signal;HPM_P1;HPM_P2
2021/12/19 00:00:57;;;;;;;6.47;4.18;;;7.40;99.90;;;;;;5074686;28;20044;-82
2021/12/19 00:08:52;;;;;;;6.68;4.35;;;7.40;99.90;;;;;;5056316;28;20045;-74
2021/12/19 00:11:21;;;;;;;7.32;4.80;;;7.40;99.90;;;;;;5073798;28;20044;-77
2021/12/19 00:13:47;;;;;;;7.32;4.97;;;7.50;99.90;;;;;;5074744;28;20480;-78
2021/12/19 00:16:13;;;;;;;6.55;4.57;;;7.50;99.90;;;;;;5058177;28;20048;-78
2021/12/19 00:18:43;;;;;;;7.72;4.72;;;7.50;99.90;;;;;;5074602;28;20040;-77
2021/12/19 00:21:10;;;;;;;7.20;4.63;;;7.50;99.90;;;;;;5058274;28;20519;-77
2021/12/19 00:23:37;;;;;;;8.05;5.10;;;7.50;99.90;;;;;;5074509;28;20372;-77
2021/12/19 00:26:02;;;;;;;7.60;5.00;;;7.50;99.90;;;;;;5074742;28;20047;-77
2021/12/19 00:28:29;;;;;;;8.05;5.50;;;7.50;99.90;;;;;;5073967;28;20051;-77
2021/12/19 00:30:55;;;;;;;8.23;5.88;;;7.50;99.90;;;;;;5057993;28;20063;-76
2021/12/19 00:33:20;;;;;;;9.68;5.60;;;7.50;99.90;;;;;;5091470;28;20088;-77
2021/12/19 00:35:46;;;;;;;7.65;4.57;;;7.50;99.90;;;;;;5064878;28;20048;-78
2021/12/19 00:38:12;;;;;;;6.80;4.75;;;7.50;99.90;;;;;;5066802;28;20044;-78
2021/12/19 00:40:38;;;;;;;6.75;4.45;;;7.50;99.90;;;;;;5070158;28;20048;-77
2021/12/19 00:43:10;;;;;;;6.40;4.13;;;7.50;99.90;;;;;;5073570;28;20072;-77
2021/12/19 00:45:40;;;;;;;7.78;4.88;;;7.50;99.90;;;;;;5054514;28;20040;-78
2021/12/19 00:48:07;;;;;;;6.63;4.20;;;7.50;99.90;;;;;;5073610;28;20040;-82
2021/12/19 00:50:35;;;;;;;7.30;5.10;;;7.50;99.90;;;;;;5072767;28;20040;-76
2021/12/19 00:53:00;;;;;;;9.15;4.85;;;7.50;99.90;;;;;;5057189;28;20044;-78
2021/12/19 00:55:28;;;;;;;6.93;4.88;;;7.50;99.90;;;;;;5055648;28;20626;-79
2021/12/19 00:57:54;;;;;;;6.97;4.78;;;7.50;99.90;;;;;;5052915;28;20094;-79
2021/12/19 01:00:24;;;;;;;6.03;3.97;;;7.50;99.90;;;;;;5067928;28;20131;-80
2021/12/19 01:02:52;;;;;;;7.82;4.50;;;7.50;99.90;;;;;;5056340;28;20047;-79
2021/12/19 01:05:18;;;;;;;7.88;4.95;;;7.50;99.90;;;;;;5054709;28;20039;-80
2021/12/19 01:07:47;;;;;;;8.07;4.97;;;7.50;99.90;;;;;;5056522;28;20048;-79
2021/12/19 01:10:13;;;;;;;7.70;4.65;;;7.50;99.90;;;;;;5055496;28;20445;-79
2021/12/19 01:12:38;;;;;;;6.93;4.40;;;7.50;99.90;;;;;;5072848;28;20052;-79
2021/12/19 01:15:12;;;;;;;7.65;4.82;;;7.50;99.90;;;;;;5072401;28;20400;-79
2021/12/19 01:17:39;;;;;;;9.35;5.60;;;7.60;99.90;;;;;;5056707;28;20195;-79
2021/12/19 01:20:10;;;;;;;6.93;4.45;;;7.50;99.90;;;;;;5072018;28;20032;-78
2021/12/19 01:22:36;;;;;;;6.87;4.40;;;7.50;99.90;;;;;;5073203;28;20036;-80
2021/12/19 01:25:02;;;;;;;8.38;3.90;;;7.50;99.90;;;;;;5055222;28;20416;-75
2021/12/19 01:27:28;;;;;;;5.65;3.47;;;7.50;99.90;;;;;;5073078;28;20035;-81
2021/12/19 01:29:53;;;;;;;6.20;3.92;;;7.50;99.90;;;;;;5072437;28;20396;-82
2021/12/19 01:32:19;;;;;;;6.35;3.80;;;7.50;99.90;;;;;;5072380;28;20040;-75
2021/12/19 01:34:44;;;;;;;5.18;2.97;;;7.60;99.90;;;;;;5072062;28;20058;-79
2021/12/19 01:37:10;;;;;;;4.18;2.53;;;7.50;99.90;;;;;;5056135;28;20083;-76
2021/12/19 01:39:35;;;;;;;3.65;2.42;;;7.60;99.90;;;;;;5071148;28;20036;-80
2021/12/19 01:42:01;;;;;;;3.70;2.20;;;7.50;99.90;;;;;;5055513;28;20040;-75
2021/12/19 01:44:27;;;;;;;4.13;2.15;;;7.60;99.90;;;;;;5055001;28;20036;-80
2021/12/19 01:46:53;;;;;;;4.18;2.17;;;7.50;99.90;;;;;;5043777;28;20530;-76
2021/12/19 01:49:21;;;;;;;4.10;2.08;;;7.50;99.90;;;;;;5035093;28;20052;-77
2021/12/19 01:51:47;;;;;;;4.68;1.88;;;7.50;99.90;;;;;;5052059;28;20050;-80
2021/12/19 01:54:13;;;;;;;3.45;1.98;;;7.50;99.90;;;;;;5035407;28;20037;-81
2021/12/19 01:56:40;;;;;;;3.15;1.67;;;7.50;99.90;;;;;;5052015;28;20538;-81
2021/12/19 01:59:10;;;;;;;3.75;1.65;;;7.50;99.90;;;;;;5052689;28;20131;-80
2021/12/19 02:01:54;;;;;;;3.28;1.58;;;7.50;99.90;;;;;;5051950;28;20048;-82
2021/12/19 02:04:21;;;;;;;2.08;1.15;;;7.50;99.90;;;;;;5051912;28;20086;-79
2021/12/19 02:06:47;;;;;;;3.58;0.85;;;7.50;99.90;;;;;;5034752;28;20128;-80
2021/12/19 02:09:13;;;;;;;1.90;0.75;;;7.50;99.90;;;;;;5051850;28;20045;-80
2021/12/19 02:11:41;;;;;;;2.00;1.05;;;7.40;99.90;;;;;;5051433;28;20045;-80
2021/12/19 02:14:08;;;;;;;1.67;0.70;;;7.40;99.90;;;;;;5051239;28;20098;-80
2021/12/19 02:16:36;;;;;;;2.28;0.65;;;7.40;99.90;;;;;;5036047;28;20048;-81
2021/12/19 02:19:04;;;;;;;1.83;0.70;;;7.40;99.90;;;;;;5034129;28;20106;-78
2021/12/19 02:21:30;;;;;;;1.58;0.30;;;7.40;99.90;;;;;;5034771;28;20106;-79
2021/12/19 02:24:01;;;;;;;1.75;0.50;;;7.40;99.90;;;;;;5052386;28;20056;-79
2021/12/19 02:26:26;;;;;;;1.60;0.32;;;7.40;99.90;;;;;;5043869;28;20040;-79
2021/12/19 02:28:52;;;;;;;2.08;0.68;;;7.40;99.90;;;;;;5034810;28;20454;-77
2021/12/19 02:31:20;;;;;;;2.72;0.40;;;7.30;99.90;;;;;;5052051;28;20088;-79
2021/12/19 02:33:59;;;;;;;2.33;0.47;;;7.30;99.90;;;;;;5054035;28;20119;-84
2021/12/19 02:36:40;;;;;;;1.23;0.30;;;7.30;99.90;;;;;;5055019;28;20504;-84
2021/12/19 02:50:08;;;;;;;0.93;0.32;;;7.30;99.90;;;;;;5056077;28;20119;-82
2021/12/19 02:52:34;;;;;;;1.90;0.40;;;7.30;99.90;;;;;;5031601;28;20040;-78
2021/12/19 02:55:00;;;;;;;1.92;0.55;;;7.40;99.90;;;;;;5038403;28;20048;-78
2021/12/19 02:57:26;;;;;;;2.30;0.45;;;7.30;99.90;;;;;;5055406;28;20045;-77
2021/12/19 02:59:52;;;;;;;2.55;0.70;;;7.30;99.90;;;;;;5055498;28;20045;-74
2021/12/19 03:02:18;;;;;;;2.05;0.50;;;7.30;99.90;;;;;;5055836;28;20045;-77
2021/12/19 03:05:05;;;;;;;1.10;0.40;;;7.30;99.90;;;;;;5072927;28;20123;-77
2021/12/19 03:07:30;;;;;;;2.67;0.30;;;7.30;99.90;;;;;;5055767;28;20119;-77
2021/12/19 03:18:06;;;;;;;1.58;0.35;;;7.30;99.90;;;;;;5054982;28;20048;-71
2021/12/19 03:20:33;;;;;;;1.30;0.30;;;7.40;99.90;;;;;;5038051;28;20093;-76
2021/12/19 03:23:00;;;;;;;1.88;0.40;;;7.30;99.90;;;;;;5055488;28;20444;-74
2021/12/19 03:25:27;;;;;;;2.60;0.68;;;7.40;99.90;;;;;;5054052;28;20048;-77
2021/12/19 03:27:52;;;;;;;2.35;0.80;;;7.30;99.90;;;;;;5039102;28;20036;-78
2021/12/19 03:30:18;;;;;;;1.77;0.60;;;7.40;99.90;;;;;;5038154;28;20112;-78
2021/12/19 03:32:44;;;;;;;2.97;0.90;;;7.40;99.90;;;;;;5054729;28;20068;-81
2021/12/19 03:35:10;;;;;;;2.30;0.90;;;7.40;99.90;;;;;;5055216;28;20033;-80
2021/12/19 03:37:36;;;;;;;2.33;0.90;;;7.40;99.90;;;;;;5036761;28;20049;-77
2021/12/19 03:40:11;;;;;;;3.15;0.77;;;7.40;99.90;;;;;;5037221;28;20052;-80
2021/12/19 03:42:46;;;;;;;1.77;0.30;;;7.30;99.90;;;;;;5055449;28;20048;-78
2021/12/19 03:45:17;;;;;;;2.15;0.40;;;7.30;99.90;;;;;;5053714;28;20033;-80
2021/12/19 03:47:44;;;;;;;2.03;0.45;;;7.30;99.90;;;;;;5054505;28;20139;-73
2021/12/19 03:50:13;;;;;;;1.80;0.40;;;7.30;99.90;;;;;;5048374;28;20091;-78
2021/12/19 03:52:39;;;;;;;2.40;0.60;;;7.20;99.90;;;;;;5042708;28;20044;-79
2021/12/19 03:55:06;;;;;;;3.30;0.60;;;7.20;99.90;;;;;;5048394;28;20051;-75
2021/12/19 03:57:31;;;;;;;2.38;0.70;;;7.10;99.90;;;;;;5054770;28;20032;-73
2021/12/19 03:59:57;;;;;;;1.90;0.50;;;7.10;99.90;;;;;;5053242;28;20139;-78
2021/12/19 04:02:27;;;;;;;2.58;0.60;;;7.00;99.90;;;;;;5038039;28;20044;-77
2021/12/19 04:04:56;;;;;;;1.67;0.68;;;7.00;99.90;;;;;;5052815;28;20045;-78
2021/12/19 04:07:22;;;;;;;2.50;0.40;;;7.10;99.90;;;;;;5053472;28;20040;-80
2021/12/19 04:09:48;;;;;;;1.10;0.20;;;7.00;99.90;;;;;;5018944;28;20089;-79
2021/12/19 04:12:15;;;;;;;1.75;0.20;;;7.00;99.90;;;;;;5032185;28;20068;-81
2021/12/19 04:14:41;;;;;;;1.17;0.20;;;7.00;99.90;;;;;;5036786;28;20045;-80
2021/12/19 04:17:07;;;;;;;2.38;0.30;;;7.00;99.90;;;;;;5037992;28;20546;-79
2021/12/19 04:19:32;;;;;;;1.88;0.30;;;7.00;99.90;;;;;;5033892;28;20045;-77
2021/12/19 04:21:59;;;;;;;0.70;0.20;;;7.00;99.90;;;;;;5042021;28;20423;-80
2021/12/19 04:24:25;;;;;;;2.75;0.32;;;7.00;99.90;;;;;;5035862;28;20063;-78
2021/12/19 04:26:51;;;;;;;0.60;0.20;;;7.00;99.90;;;;;;5053212;28;20048;-79
2021/12/19 04:29:17;;;;;;;1.27;0.20;;;7.00;99.90;;;;;;5025246;28;20048;-75
2021/12/19 04:31:43;;;;;;;1.55;0.30;;;7.00;99.90;;;;;;5052109;28;20060;-81
2021/12/19 04:34:12;;;;;;;1.67;0.10;;;7.00;99.90;;;;;;5037664;28;20094;-80
2021/12/19 04:36:41;;;;;;;0.70;0.10;;;7.00;99.90;;;;;;5052668;28;20102;-80
2021/12/19 04:55:20;;;;;;;0.70;0.10;;;6.90;99.90;;;;;;5053123;28;20412;-81
2021/12/19 04:57:53;;;;;;;0.47;0.10;;;6.90;99.90;;;;;;5051978;28;20045;-77
2021/12/19 05:00:31;;;;;;;0.50;0.10;;;6.90;99.90;;;;;;5052714;28;20044;-80
2021/12/19 05:03:06;;;;;;;1.77;0.10;;;6.90;99.90;;;;;;5052822;28;20041;-74
2021/12/19 05:16:12;;;;;;;0.60;0.10;;;6.90;99.90;;;;;;5052449;28;20430;-80
2021/12/19 05:18:40;;;;;;;1.15;0.10;;;6.80;99.90;;;;;;5052861;28;20055;-79
2021/12/19 05:21:18;;;;;;;0.47;0.10;;;6.90;99.90;;;;;;5036083;28;20051;-72
2021/12/19 05:26:10;;;;;;;1.35;0.17;;;6.90;99.90;;;;;;5052296;28;20048;-80
2021/12/19 05:28:36;;;;;;;1.48;0.20;;;6.90;99.90;;;;;;5053097;28;20044;-78
2021/12/19 05:31:02;;;;;;;1.25;0.20;;;6.80;99.90;;;;;;5035338;28;20051;-79
2021/12/19 05:33:27;;;;;;;0.65;0.20;;;6.90;99.90;;;;;;5053215;28;20070;-80
2021/12/19 05:36:02;;;;;;;1.83;0.20;;;6.90;99.90;;;;;;5052537;28;20083;-77
2021/12/19 05:46:38;;;;;;;1.58;0.30;;;6.90;99.90;;;;;;5052184;28;20048;-79
2021/12/19 05:49:04;;;;;;;1.05;0.35;;;6.80;99.90;;;;;;5051998;28;20059;-75
2021/12/19 05:51:30;;;;;;;1.92;0.40;;;6.80;99.90;;;;;;5052388;28;20048;-71
2021/12/19 05:53:56;;;;;;;1.10;0.38;;;6.90;99.90;;;;;;5028772;28;20033;-80
2021/12/19 05:56:21;;;;;;;3.67;0.63;;;6.90;99.90;;;;;;5042896;28;20120;-71
2021/12/19 05:58:47;;;;;;;2.00;0.60;;;6.90;99.90;;;;;;5035597;28;20461;-80
2021/12/19 06:01:13;;;;;;;2.00;0.73;;;6.90;99.90;;;;;;5051773;28;20055;-80
2021/12/19 06:03:38;;;;;;;3.22;1.05;;;6.90;99.90;;;;;;5040374;28;20479;-80
2021/12/19 06:06:04;;;;;;;2.83;0.90;;;6.90;99.90;;;;;;5051470;28;20123;-72
2021/12/19 06:08:29;;;;;;;5.50;1.95;;;7.00;99.90;;;;;;5048880;28;20044;-72
2021/12/19 06:10:55;;;;;;;4.78;2.50;;;6.90;99.90;;;;;;5040884;28;20063;-77
2021/12/19 06:13:21;;;;;;;7.13;2.40;;;6.90;99.90;;;;;;5051252;28;20048;-77
2021/12/19 06:15:50;;;;;;;8.15;2.40;;;6.90;99.90;;;;;;5035764;28;20079;-77
2021/12/19 06:18:16;;;;;;;6.40;2.70;;;7.00;99.90;;;;;;5051963;28;20052;-77
2021/12/19 06:20:41;;;;;;;7.10;2.70;;;7.00;99.90;;;;;;5035236;28;20469;-77
2021/12/19 06:23:09;;;;;;;7.80;2.72;;;7.00;99.90;;;;;;5051932;28;20051;-75
2021/12/19 06:25:34;;;;;;;9.50;3.38;;;7.00;99.90;;;;;;5052790;28;20408;-77
2021/12/19 06:28:00;;;;;;;9.88;3.45;;;7.00;99.90;;;;;;5043651;28;20052;-77
2021/12/19 06:30:27;;;;;;;6.60;3.30;;;7.10;99.90;;;;;;5035698;28;20131;-77
2021/12/19 06:32:53;;;;;;;7.07;2.55;;;7.10;99.90;;;;;;5041142;28;20521;-75
2021/12/19 06:35:21;;;;;;;9.30;3.35;;;7.10;99.90;;;;;;5043736;28;20060;-73
2021/12/19 06:37:48;;;;;;;9.10;3.25;;;7.10;99.90;;;;;;5046683;28;20551;-77
2021/12/19 06:40:18;;;;;;;11.20;3.38;;;7.10;99.90;;;;;;5037492;28;20481;-76
2021/12/19 06:42:44;;;;;;;14.38;3.72;;;7.10;99.90;;;;;;5023862;28;20059;-77
2021/12/19 06:45:10;;;;;;;10.43;3.72;;;7.10;99.90;;;;;;5040459;28;20051;-78
2021/12/19 06:47:37;;;;;;;7.50;3.63;;;7.10;99.90;;;;;;5055314;28;20401;-79
2021/12/19 06:50:03;;;;;;;12.30;4.35;;;7.10;99.90;;;;;;5051459;28;20045;-79
2021/12/19 06:52:29;;;;;;;11.57;4.57;;;7.10;99.90;;;;;;5050865;28;20420;-75
2021/12/19 06:54:55;;;;;;;14.68;4.88;;;7.10;99.90;;;;;;5035741;28;20404;-74
2021/12/19 06:57:20;;;;;;;19.50;5.55;;;7.10;99.90;;;;;;5036074;28;20146;-74
2021/12/19 06:59:47;;;;;;;16.90;6.70;;;7.10;99.90;;;;;;5052207;28;20049;-73
2021/12/19 07:02:15;;;;;;;16.73;6.75;;;7.10;99.90;;;;;;5051603;28;20444;-78
2021/12/19 07:04:45;;;;;;;13.57;6.57;;;7.10;99.90;;;;;;5044351;28;20040;-74
2021/12/19 07:07:12;;;;;;;12.55;6.75;;;7.20;99.90;;;;;;5052009;28;20052;-79
2021/12/19 07:09:39;;;;;;;15.25;6.97;;;7.20;99.90;;;;;;5051708;28;20032;-78
2021/12/19 07:12:05;;;;;;;12.95;4.72;;;7.20;99.90;;;;;;5052242;28;20136;-80
2021/12/19 07:14:31;;;;;;;12.93;6.47;;;7.20;99.90;;;;;;5058842;28;20052;-81
2021/12/19 07:16:56;;;;;;;13.77;5.65;;;7.20;99.90;;;;;;5028075;28;20516;-82
2021/12/19 07:19:22;;;;;;;14.45;5.20;;;7.20;99.90;;;;;;5047217;28;20036;-82
2021/12/19 07:21:47;;;;;;;8.90;4.72;;;7.20;99.90;;;;;;5039020;28;20045;-81
2021/12/19 07:24:16;;;;;;;12.50;4.10;;;7.20;99.90;;;;;;5072718;28;20533;-80
2021/12/19 07:26:42;;;;;;;11.70;2.88;;;7.20;99.90;;;;;;5056330;28;20127;-73
2021/12/19 07:29:08;;;;;;;8.18;2.67;;;7.20;99.90;;;;;;5058354;28;20079;-80
2021/12/19 07:31:37;;;;;;;9.82;2.72;;;7.10;99.90;;;;;;5054452;28;20044;-80
2021/12/19 07:34:03;;;;;;;14.93;3.85;;;7.10;99.90;;;;;;5055879;28;20036;-77
2021/12/19 07:36:36;;;;;;;9.07;2.88;;;7.10;99.90;;;;;;5039041;28;20048;-82
2021/12/19 07:39:09;;;;;;;14.10;2.63;;;7.20;99.90;;;;;;5059900;28;20442;-74
2021/12/19 07:41:34;;;;;;;;;;;7.10;99.90;;;;;;5055704;28;20381;-79
2021/12/19 07:44:00;;;;;;;9.45;2.38;;;7.10;99.90;;;;;;5055422;28;19946;-72
2021/12/19 07:46:26;;;;;;;9.13;2.65;;;7.10;99.90;;;;;;5055805;28;20097;-78
2021/12/19 07:48:52;;;;;;;10.00;2.30;;;7.10;99.90;;;;;;5074750;28;20084;-78
2021/12/19 07:51:17;;;;;;;9.43;2.85;;;7.10;99.90;;;;;;5070173;28;20086;-79
2021/12/19 07:53:43;;;;;;;10.10;2.75;;;7.10;99.90;;;;;;5074126;28;20353;-79
2021/12/19 07:56:08;;;;;;;10.07;3.00;;;7.10;99.90;;;;;;5075125;28;20048;-77
2021/12/19 07:58:34;;;;;;;10.20;3.20;;;7.20;99.90;;;;;;5073152;28;20450;-78
2021/12/19 08:01:00;;;;;;;10.82;2.88;;;7.20;99.90;;;;;;5057705;28;20044;-77
2021/12/19 08:03:25;;;;;;;12.32;3.53;;;7.20;99.90;;;;;;5074363;28;20066;-80
2021/12/19 08:05:51;;;;;;;10.05;3.17;;;7.20;99.90;;;;;;5073776;28;20069;-79
2021/12/19 08:08:21;;;;;;;11.13;3.22;;;7.30;99.90;;;;;;5074685;28;20105;-78
2021/12/19 08:13:13;;;;;;;14.95;3.10;;;7.20;99.90;;;;;;5073455;28;20434;-78
2021/12/19 08:15:39;;;;;;;11.52;3.78;;;7.20;99.90;;;;;;5056249;28;20047;-81
2021/12/19 08:18:06;;;;;;;13.45;3.10;;;7.30;99.90;;;;;;5068528;28;20040;-79
2021/12/19 08:20:33;;;;;;;13.35;3.45;;;7.30;99.90;;;;;;5056896;28;20039;-84
2021/12/19 08:22:58;;;;;;;13.60;4.50;;;7.30;99.90;;;;;;5071780;28;20684;-81
2021/12/19 08:25:26;;;;;;;13.25;3.35;;;7.30;99.90;;;;;;5041207;28;20408;-83
2021/12/19 08:27:52;;;;;;;10.32;3.92;;;7.30;99.90;;;;;;5056023;28;20070;-73
2021/12/19 08:30:19;;;;;;;13.75;3.40;;;7.30;99.90;;;;;;5056773;28;20066;-79
2021/12/19 08:32:44;;;;;;;14.00;3.65;;;7.30;99.90;;;;;;5073274;28;20102;-82
2021/12/19 08:35:12;;;;;;;10.30;3.40;;;7.30;99.90;;;;;;5073948;28;20427;-81
2021/12/19 08:37:39;;;;;;;12.52;3.00;;;7.40;99.90;;;;;;5054175;28;20082;-82
2021/12/19 08:40:10;;;;;;;8.90;2.53;;;7.30;99.90;;;;;;5064932;28;20093;-77
2021/12/19 08:42:36;;;;;;;9.85;2.67;;;7.40;99.90;;;;;;5072020;28;20397;-82
2021/12/19 08:45:02;;;;;;;8.73;2.75;;;7.40;99.90;;;;;;5074186;28;20051;-74
2021/12/19 08:47:28;;;;;;;10.05;3.30;;;7.30;99.90;;;;;;5074025;28;20053;-83
2021/12/19 08:49:53;;;;;;;10.57;2.25;;;7.30;99.90;;;;;;5073957;28;20040;-84
2021/12/19 08:52:19;;;;;;;9.13;2.35;;;7.30;99.90;;;;;;5074035;28;20043;-75
2021/12/19 08:54:46;;;;;;;7.95;2.22;;;7.40;99.90;;;;;;5073862;28;20046;-83
2021/12/19 08:57:12;;;;;;;6.57;2.05;;;7.40;99.90;;;;;;5073906;28;20471;-74
2021/12/19 08:59:37;;;;;;;10.20;2.00;;;7.40;99.90;;;;;;5074266;28;20075;-83
2021/12/19 09:02:03;;;;;;;9.50;1.58;;;7.40;99.90;;;;;;5072415;28;20052;-84
2021/12/19 09:04:30;;;;;;;9.23;2.20;;;7.40;99.90;;;;;;5061892;28;20126;-80
2021/12/19 09:06:56;;;;;;;9.52;1.95;;;7.50;99.90;;;;;;5070956;28;20044;-81
2021/12/19 09:09:24;;;;;;;9.15;1.95;;;7.40;99.90;;;;;;5066450;28;20122;-81
2021/12/19 09:11:52;;;;;;;4.68;1.95;;;7.40;99.90;;;;;;5089891;28;20063;-81
2021/12/19 09:14:18;;;;;;;7.53;2.00;;;7.50;99.90;;;;;;5073128;28;20408;-82
2021/12/19 09:16:44;;;;;;;7.45;2.00;;;7.40;99.90;;;;;;5055160;28;20139;-82
2021/12/19 09:19:10;;;;;;;10.70;2.17;;;7.50;99.90;;;;;;5071817;28;20038;-82
2021/12/19 09:21:35;;;;;;;10.60;2.15;;;7.50;99.90;;;;;;5065787;28;20101;-80
2021/12/19 09:24:03;;;;;;;7.35;2.20;;;7.50;99.90;;;;;;5053712;28;20138;-80
2021/12/19 09:26:28;;;;;;;8.25;2.28;;;7.50;99.90;;;;;;5071656;28;20091;-80
2021/12/19 09:28:54;;;;;;;11.90;2.15;;;7.50;99.90;;;;;;5073371;28;20504;-81
2021/12/19 09:31:21;;;;;;;7.47;1.92;;;7.50;99.90;;;;;;5071873;28;20043;-74
2021/12/19 09:33:47;;;;;;;11.48;3.25;;;7.60;99.90;;;;;;5068499;28;20395;-76
2021/12/19 09:36:13;;;;;;;13.57;2.45;;;7.60;99.90;;;;;;5086417;28;20052;-80
2021/12/19 09:38:39;;;;;;;9.43;2.35;;;7.60;99.90;;;;;;5061684;28;20488;-82
2021/12/19 09:41:13;;;;;;;9.13;2.35;;;7.60;99.90;;;;;;5051047;28;20050;-72
2021/12/19 09:43:44;;;;;;;7.93;2.35;;;7.60;99.90;;;;;;5072064;28;20043;-81
2021/12/19 09:46:19;;;;;;;9.85;2.08;;;7.70;99.90;;;;;;5070658;28;20048;-81
2021/12/19 09:48:48;;;;;;;6.38;2.85;;;7.70;99.90;;;;;;5055947;28;20135;-80
2021/12/19 09:51:16;;;;;;;8.02;2.35;;;7.70;99.90;;;;;;5070792;28;20046;-74
2021/12/19 09:53:43;;;;;;;4.82;1.52;;;7.70;99.90;;;;;;5068770;28;20090;-80
2021/12/19 09:56:10;;;;;;;6.32;1.75;;;7.70;99.90;;;;;;5068552;28;20061;-79
2021/12/19 09:58:37;;;;;;;12.32;1.95;;;7.80;99.90;;;;;;5061569;28;20036;-81
2021/12/19 10:01:07;;;;;;;10.10;1.90;;;7.80;99.90;;;;;;5073238;28;20125;-80
2021/12/19 10:03:33;;;;;;;9.88;1.80;;;7.80;99.90;;;;;;5066879;28;20044;-72
2021/12/19 10:06:24;;;;;;;6.13;1.73;;;7.80;99.90;;;;;;5055878;28;20051;-78
2021/12/19 10:09:18;;;;;;;7.68;1.40;;;7.80;99.90;;;;;;5062089;28;20448;-75
2021/12/19 10:14:34;;;;;;;13.25;2.20;;;7.90;99.90;;;;;;5038494;28;20497;-81
2021/12/19 10:17:03;;;;;;;9.77;1.85;;;8.00;99.90;;;;;;5071706;28;20127;-74
2021/12/19 10:19:45;;;;;;;11.27;1.55;;;7.90;99.90;;;;;;5064919;28;20511;-79
2021/12/19 10:22:40;;;;;;;10.45;1.98;;;7.90;99.90;;;;;;5071754;28;20102;-80
2021/12/19 10:25:19;;;;;;;6.43;2.08;;;7.90;99.90;;;;;;5070148;28;20032;-77
2021/12/19 10:27:57;;;;;;;8.82;1.67;;;7.90;99.90;;;;;;5072243;28;20043;-80
2021/12/19 10:30:34;;;;;;;10.70;2.30;;;8.00;99.90;;;;;;5068030;28;20128;-75
2021/12/19 10:33:08;;;;;;;6.72;1.80;;;8.00;99.90;;;;;;5076419;28;20080;-74
2021/12/19 10:35:39;;;;;;;8.73;1.90;;;8.00;99.90;;;;;;5069106;28;20395;-80
2021/12/19 10:38:07;;;;;;;6.45;2.00;;;8.00;99.90;;;;;;5071931;28;20500;-80
2021/12/19 10:40:32;;;;;;;12.40;2.20;;;8.00;99.90;;;;;;5070795;28;20097;-76
2021/12/19 10:43:04;;;;;;;8.63;2.05;;;8.00;99.90;;;;;;5067780;28;20052;-74
2021/12/19 10:45:45;;;;;;;6.07;1.88;;;8.00;99.90;;;;;;5071286;28;20040;-80
2021/12/19 10:48:11;;;;;;;7.03;2.08;;;8.10;99.90;;;;;;5071553;28;20125;-82
2021/12/19 10:51:02;;;;;;;8.70;2.13;;;8.10;99.90;;;;;;5071878;28;20048;-81
2021/12/19 10:53:35;;;;;;;8.57;1.70;;;8.10;99.90;;;;;;5073945;28;20036;-72
2021/12/19 10:56:06;;;;;;;8.05;1.90;;;8.10;99.90;;;;;;5076461;28;20050;-79
2021/12/19 10:58:53;;;;;;;5.88;1.80;;;8.00;99.90;;;;;;5067938;28;20074;-72
2021/12/19 11:01:31;;;;;;;11.43;1.88;;;8.00;99.90;;;;;;5092963;28;20079;-74
2021/12/19 11:04:07;;;;;;;7.20;1.90;;;8.00;99.90;;;;;;5073129;28;20048;-74
2021/12/19 11:06:41;;;;;;;8.50;1.63;;;8.10;99.90;;;;;;5073276;28;20048;-80
2021/12/19 11:09:15;;;;;;;6.95;1.98;;;8.10;99.90;;;;;;5070401;28;20098;-79
2021/12/19 11:11:53;;;;;;;8.85;1.98;;;8.10;99.90;;;;;;5075014;28;20488;-80
2021/12/19 11:14:22;;;;;;;9.25;2.28;;;8.10;99.90;;;;;;5075220;28;20051;-77
2021/12/19 11:16:49;;;;;;;8.32;1.70;;;8.10;99.90;;;;;;5070705;28;20526;-79
2021/12/19 11:19:15;;;;;;;10.23;2.03;;;8.20;99.90;;;;;;5073736;28;20051;-80
2021/12/19 11:21:42;;;;;;;9.98;1.65;;;8.10;99.90;;;;;;5074434;28;20036;-80
2021/12/19 11:24:16;;;;;;;8.30;1.60;;;8.20;99.90;;;;;;5076414;28;20061;-80
2021/12/19 11:26:45;;;;;;;9.82;2.17;;;8.20;99.90;;;;;;5071042;28;20481;-83
2021/12/19 11:29:14;;;;;;;10.90;1.67;;;8.20;99.90;;;;;;5089689;28;20397;-81
2021/12/19 11:31:45;;;;;;;8.30;1.67;;;8.20;99.90;;;;;;5066470;28;20112;-81
2021/12/19 11:34:31;;;;;;;9.13;1.85;;;8.30;99.90;;;;;;5056123;28;20106;-81
2021/12/19 11:37:00;;;;;;;10.43;2.00;;;8.30;99.90;;;;;;5074869;28;20052;-83
2021/12/19 11:39:40;;;;;;;7.38;1.77;;;8.30;99.90;;;;;;5075190;28;20109;-82
2021/12/19 11:42:10;;;;;;;8.73;1.60;;;8.30;99.90;;;;;;5075237;28;20086;-81
2021/12/19 11:44:41;;;;;;;12.73;1.65;;;8.50;99.90;;;;;;5092338;28;20040;-80
2021/12/19 11:47:12;;;;;;;7.30;1.30;;;8.20;99.90;;;;;;5075518;28;20087;-82
2021/12/19 11:49:38;;;;;;;8.65;1.05;;;8.20;99.90;;;;;;5057768;28;20113;-82
2021/12/19 11:52:22;;;;;;;10.27;1.95;;;8.20;99.90;;;;;;5058295;28;20044;-77
2021/12/19 11:55:13;;;;;;;8.98;1.30;;;8.20;99.90;;;;;;5058662;28;20047;-85
2021/12/19 11:57:39;;;;;;;7.00;1.38;;;8.30;99.90;;;;;;5055967;28;20071;-80
2021/12/19 12:00:28;;;;;;;5.20;1.20;;;8.30;99.90;;;;;;5075009;28;20059;-78
2021/12/19 12:03:31;;;;;;;11.10;1.48;;;8.30;99.90;;;;;;5073712;28;20083;-81
2021/12/19 12:06:09;;;;;;;8.43;1.63;;;8.20;99.90;;;;;;4975490;28;20052;-80
2021/12/19 12:08:35;;;;;;;8.82;1.40;;;8.40;99.90;;;;;;5064818;28;20055;-80
2021/12/19 12:11:08;;;;;;;9.80;1.88;;;8.20;99.90;;;;;;5074809;28;20040;-80
2021/12/19 12:13:35;;;;;;;9.38;2.17;;;8.30;99.90;;;;;;5075398;28;20074;-80
2021/12/19 12:16:21;;;;;;;8.93;1.60;;;8.30;99.90;;;;;;5075285;28;20115;-72
2021/12/19 12:18:55;;;;;;;10.93;1.45;;;8.30;99.90;;;;;;5071354;28;20063;-81
2021/12/19 12:21:33;;;;;;;9.48;1.98;;;8.20;99.90;;;;;;5063281;28;20048;-72
2021/12/19 12:24:02;;;;;;;7.03;1.95;;;8.20;99.90;;;;;;5074404;28;20131;-76
2021/12/19 12:26:46;;;;;;;7.40;1.45;;;8.20;99.90;;;;;;5075398;28;20097;-81
2021/12/19 12:29:12;;;;;;;5.97;1.35;;;8.20;99.90;;;;;;5074994;28;20587;-80
2021/12/19 12:31:40;;;;;;;8.88;1.23;;;8.20;99.90;;;;;;5074680;28;20123;-81
2021/12/19 12:34:12;;;;;;;8.88;1.95;;;8.20;99.90;;;;;;5075201;28;20063;-76
2021/12/19 12:36:39;;;;;;;5.95;1.23;;;8.30;99.90;;;;;;5075142;28;20737;-80
2021/12/19 12:39:10;;;;;;;11.48;1.75;;;8.20;99.90;;;;;;5074660;28;20190;-76
2021/12/19 12:41:51;;;;;;;6.95;1.58;;;8.20;99.90;;;;;;5075061;28;20558;-82
2021/12/19 12:44:19;;;;;;;12.52;1.60;;;8.30;99.90;;;;;;5074786;28;20058;-76
2021/12/19 12:46:45;;;;;;;6.65;1.67;;;8.30;99.90;;;;;;5070709;28;20064;-81
2021/12/19 12:49:20;;;;;;;12.73;1.42;;;8.30;99.90;;;;;;5081908;28;20086;-74
2021/12/19 12:51:59;;;;;;;6.72;1.25;;;8.30;99.90;;;;;;5092007;28;20093;-81
2021/12/19 12:54:35;;;;;;;7.30;1.20;;;8.30;99.90;;;;;;5087135;28;20421;-76
2021/12/19 12:57:08;;;;;;;7.85;1.10;;;8.30;99.90;;;;;;5070133;28;20074;-79
2021/12/19 12:59:36;;;;;;;;;;;8.30;99.90;;;;;;5081201;28;20464;-80
2021/12/19 13:04:33;;;;;;;12.57;0.90;;;8.30;99.90;;;;;;5080465;28;20461;-73
2021/12/19 13:07:09;;;;;;;8.98;0.90;;;8.40;99.90;;;;;;5050281;28;20052;-78
2021/12/19 13:09:41;;;;;;;4.55;0.98;;;8.40;99.90;;;;;;5056599;28;20154;-74
2021/12/19 13:12:13;;;;;;;7.65;0.82;;;8.30;99.90;;;;;;5055632;28;20518;-78
2021/12/19 13:14:53;;;;;;;8.68;0.90;;;8.40;99.90;;;;;;5073039;28;20135;-79
2021/12/19 13:17:32;;;;;;;12.35;1.77;;;8.40;99.90;;;;;;5056828;28;20101;-80
2021/12/19 13:20:19;;;;;;;9.38;1.52;;;8.40;99.90;;;;;;5056715;28;20036;-80
2021/12/19 13:22:54;;;;;;;10.60;1.38;;;8.40;99.90;;;;;;5057307;28;20075;-80
2021/12/19 13:25:22;;;;;;;8.57;1.67;;;8.40;99.90;;;;;;5049391;28;20036;-80
2021/12/19 13:27:59;;;;;;;12.85;1.83;;;8.30;99.90;;;;;;5065478;28;20051;-81
2021/12/19 13:30:35;;;;;;;9.98;1.55;;;8.40;99.90;;;;;;5065807;28;20047;-76
2021/12/19 13:33:07;;;;;;;11.82;1.70;;;8.30;99.90;;;;;;5037587;28;20106;-82
2021/12/19 13:35:48;;;;;;;7.05;1.38;;;8.30;99.90;;;;;;5049211;28;20032;-80
2021/12/19 13:38:17;;;;;;;11.52;1.42;;;8.30;99.90;;;;;;5057176;28;20520;-76
2021/12/19 13:40:49;;;;;;;14.65;2.00;;;8.30;99.90;;;;;;5051200;28;20040;-79
2021/12/19 13:43:19;;;;;;;13.88;1.30;;;8.30;99.90;;;;;;5063635;28;20500;-78
2021/12/19 13:45:52;;;;;;;11.30;1.58;;;8.30;99.90;;;;;;5052437;28;20135;-80
2021/12/19 13:48:37;;;;;;;14.52;1.63;;;8.30;99.90;;;;;;5056145;28;20044;-81
2021/12/19 13:51:07;;;;;;;7.50;1.20;;;8.30;99.90;;;;;;5061806;28;20040;-80
2021/12/19 13:53:36;;;;;;;7.13;1.30;;;8.30;99.90;;;;;;5072058;28;20396;-81
2021/12/19 13:56:04;;;;;;;14.10;1.67;;;8.30;99.90;;;;;;5054852;28;20075;-79
2021/12/19 13:58:32;;;;;;;11.10;1.55;;;8.30;99.90;;;;;;5072818;28;20050;-73
2021/12/19 14:00:59;;;;;;;10.10;1.17;;;8.30;99.90;;;;;;5055822;28;20127;-80
2021/12/19 14:03:38;;;;;;;11.40;1.02;;;8.30;99.90;;;;;;5055158;28;20062;-78
2021/12/19 14:06:04;;;;;;;10.02;1.25;;;8.40;99.90;;;;;;5072712;28;20055;-73
2021/12/19 14:08:32;;;;;;;12.40;1.05;;;8.40;99.90;;;;;;5039283;28;20489;-73
2021/12/19 14:11:03;;;;;;;11.82;1.85;;;8.40;99.90;;;;;;5062429;28;20527;-80
2021/12/19 14:13:32;;;;;;;8.02;1.13;;;8.30;99.90;;;;;;5055123;28;20926;-79
2021/12/19 14:16:00;;;;;;;11.05;1.20;;;8.40;99.90;;;;;;5073203;28;20570;-81